Sisseton, SD

9:49 AM CDT on October 01, 2014 (GMT -0500)
Sisseton | Change Station
CLOSE
Current Station
Airport
Location: Sisseton,
Elevation: 1161 ft
Nearby Weather Stations

Elev 1161 ft 45.67 °N, 96.99 °W | Updated 53 minutes ago

Partly Cloudy
Partly Cloudy
61 °F
Feels Like 61 °F
N
6
Wind Variable Wind from SSW
Gusts 16 mph

Today
High -- | Low -- °F
--% Chance of Precip.
Yesterday
High -- | Low -- °F
Precip. -- in
7:26 AM 7:08 PM
Waxing Crescent, 48% visible
Pressure 29.67 in
Visibility -9999.0 miles
Clouds
Dew Point 59 °F
Humidity 93%
Rainfall 0.00 in
Snow Depth 0 in , 1 in
UV Not available.
Pollen 2.50 out of 12
Air Quality Not available.
Flu Activity Not available.
METAR K8D3 011356Z AUTO 21005KT 16/15 A2968 RMK AO1 SLP045 T01610150

More Conditions Fewer Conditions

Pressure 29.67 in
Visibility -9999.0 miles
Clouds
Dew Point 59 °F
Humidity 93%
Rainfall 0.00 in
Snow Depth 0 in , 1 in
UV Not available.
Pollen 2.50 out of 12
Air Quality Not available.
Flu Activity Not available.
METAR K8D3 011356Z AUTO 21005KT 16/15 A2968 RMK AO1 SLP045 T01610150

More Conditions Fewer Conditions

10-Day Weather Forecast

Almanac

Astronomy

Oct. 01, 2014 Rise Set
Actual Time 7:26 AM CDT 7:08 PM CDT
Civil Twilight 6:56 AM CDT 7:37 PM CDT
Nautical Twilight 6:22 AM CDT 8:12 PM CDT
Astronomical Twilight 5:47 AM CDT 8:47 PM CDT
Moon 2:41 PM CDT No Moon Set
Length of Visible Light 12h 40m
Length of Day
11h 41m
Tomorrow will be 3m 10s shorter.
Waxing Crescent, 48% of the Moon is Illuminated
Today
Waxing Crescent
Oct 1
First Quarter
Oct 8
Full
Oct 15
Last Quarter
Oct 23
New

Today's Extremes

State Highs State Lows

Community

WunderPhotos

Upload Photos

1,757,960 photos uploaded!

Nearby

Snow Depth

Station Depth Elevation
North Rapid Creek 0 in 6130 ft
Blind Park 1 in 6890 ft

Earthquake Activity

City Distance Mag. Time & Date
No recent earthquake activity has been reported nearby.
Minimum magnitude displayed is 2.5.

Coastal Water Temperatures

Place Temperature
No Stations Reporting

Nearby Weather Stations